Cincinnati, Ohio
Traffic Map
Current Weather Conditions
Cincinnati, Ohio
Broken Clouds
Broken Clouds
29°
Feels Like: 31°
Wind Chill: 29° Ceiling: 11000
Heat Index: 31° Visibility: 10mi
Dew Point: 21° Wind: 9mph
Humidity: 61% Direction: 250° (WSW)
Pressure: 29.93in Gusts: 0mph
Raw Report DataKLUK 302153Z 25008KT 10SM FEW070 BKN110 29/21 A2993 RMK AO2 SLP132 T02890206
Traffic Incident Summary
Active as of:
Severity:
Category:
InformationThere was an issue retrieving the traffic information for this location. Please try a different location or try again shortly.
Advertisements
Track Severe Weather on mobile